Terminal Aerodrome Forecast
Issued by NWS

Home | Current Version | Previous Version | Text Only | Print | Product List | Glossary On
Versions: 1 2 3 4 5 6 7 8 9 10 11 12 13 14 15 16
000
FTUS43 KGRR 211100 RRA
TAFBTL
TAF
KBTL 211142Z 2112/2212 35011KT P6SM VCSH OVC015
      TEMPO 2112/2115 OVC009
     FM211800 01010KT P6SM BKN025
     FM220100 03006KT P6SM SCT035=

USA.gov is the U.S. government's official web portal to all federal, state and local government web resources and services.